sensor_id;sensor_type;location;lat;lon;timestamp;temperature;humidity
85097;SHT30;75436;53.502;10.030;2024-02-15T00:00:15;11.09;96.07
85097;SHT30;75436;53.502;10.030;2024-02-15T00:02:44;11.20;96.07
85097;SHT30;75436;53.502;10.030;2024-02-15T00:05:13;11.24;95.92
85097;SHT30;75436;53.502;10.030;2024-02-15T00:07:46;11.24;95.72
85097;SHT30;75436;53.502;10.030;2024-02-15T00:10:14;11.22;95.78
85097;SHT30;75436;53.502;10.030;2024-02-15T00:12:40;11.26;95.77
85097;SHT30;75436;53.502;10.030;2024-02-15T00:15:05;11.22;95.67
85097;SHT30;75436;53.502;10.030;2024-02-15T00:17:31;11.23;95.71
85097;SHT30;75436;53.502;10.030;2024-02-15T00:19:57;11.31;95.38
85097;SHT30;75436;53.502;10.030;2024-02-15T00:22:23;11.27;95.36
85097;SHT30;75436;53.502;10.030;2024-02-15T00:24:49;11.31;95.32
85097;SHT30;75436;53.502;10.030;2024-02-15T00:27:17;11.37;95.06
85097;SHT30;75436;53.502;10.030;2024-02-15T00:29:43;11.37;95.25
85097;SHT30;75436;53.502;10.030;2024-02-15T00:32:09;11.48;94.85
85097;SHT30;75436;53.502;10.030;2024-02-15T00:34:38;11.44;94.70
85097;SHT30;75436;53.502;10.030;2024-02-15T00:37:04;11.41;94.79
85097;SHT30;75436;53.502;10.030;2024-02-15T00:39:32;11.37;94.85
85097;SHT30;75436;53.502;10.030;2024-02-15T00:41:59;11.46;94.82
85097;SHT30;75436;53.502;10.030;2024-02-15T00:44:28;11.41;94.73
85097;SHT30;75436;53.502;10.030;2024-02-15T00:46:53;11.43;94.77
85097;SHT30;75436;53.502;10.030;2024-02-15T00:49:19;11.44;94.85
85097;SHT30;75436;53.502;10.030;2024-02-15T00:51:49;11.46;94.59
85097;SHT30;75436;53.502;10.030;2024-02-15T00:54:15;11.44;94.72
85097;SHT30;75436;53.502;10.030;2024-02-15T00:56:42;11.48;94.65
85097;SHT30;75436;53.502;10.030;2024-02-15T00:59:07;11.46;94.64
85097;SHT30;75436;53.502;10.030;2024-02-15T01:01:32;11.47;94.77
85097;SHT30;75436;53.502;10.030;2024-02-15T01:03:58;11.48;94.77
85097;SHT30;75436;53.502;10.030;2024-02-15T01:06:24;11.51;94.50
85097;SHT30;75436;53.502;10.030;2024-02-15T01:08:50;11.54;94.48
85097;SHT30;75436;53.502;10.030;2024-02-15T01:11:15;11.56;94.21
85097;SHT30;75436;53.502;10.030;2024-02-15T01:13:41;11.57;94.25
85097;SHT30;75436;53.502;10.030;2024-02-15T01:16:09;11.51;94.35
85097;SHT30;75436;53.502;10.030;2024-02-15T01:18:35;11.56;94.30
85097;SHT30;75436;53.502;10.030;2024-02-15T01:21:02;11.64;94.18
85097;SHT30;75436;53.502;10.030;2024-02-15T01:23:28;11.66;94.07
85097;SHT30;75436;53.502;10.030;2024-02-15T01:25:55;11.57;94.13
85097;SHT30;75436;53.502;10.030;2024-02-15T01:28:21;11.58;94.28
85097;SHT30;75436;53.502;10.030;2024-02-15T01:30:53;11.54;94.41
85097;SHT30;75436;53.502;10.030;2024-02-15T01:33:20;11.53;94.50
85097;SHT30;75436;53.502;10.030;2024-02-15T01:35:45;11.50;94.46
85097;SHT30;75436;53.502;10.030;2024-02-15T01:38:10;11.50;94.49
85097;SHT30;75436;53.502;10.030;2024-02-15T01:40:37;11.60;94.48
85097;SHT30;75436;53.502;10.030;2024-02-15T01:43:06;11.58;94.23
85097;SHT30;75436;53.502;10.030;2024-02-15T01:45:32;11.61;94.37
85097;SHT30;75436;53.502;10.030;2024-02-15T01:47:58;11.57;94.38
85097;SHT30;75436;53.502;10.030;2024-02-15T01:50:25;11.56;94.39
85097;SHT30;75436;53.502;10.030;2024-02-15T01:52:54;11.56;94.47
85097;SHT30;75436;53.502;10.030;2024-02-15T01:55:22;11.53;94.46
85097;SHT30;75436;53.502;10.030;2024-02-15T01:57:49;11.66;94.18
85097;SHT30;75436;53.502;10.030;2024-02-15T02:00:18;11.57;94.26
85097;SHT30;75436;53.502;10.030;2024-02-15T02:02:45;11.58;94.32
85097;SHT30;75436;53.502;10.030;2024-02-15T02:05:12;11.61;94.23
85097;SHT30;75436;53.502;10.030;2024-02-15T02:07:37;11.58;94.28
85097;SHT30;75436;53.502;10.030;2024-02-15T02:10:04;11.60;94.33
85097;SHT30;75436;53.502;10.030;2024-02-15T02:12:31;11.61;94.34
85097;SHT30;75436;53.502;10.030;2024-02-15T02:14:57;11.58;94.36
85097;SHT30;75436;53.502;10.030;2024-02-15T02:17:23;11.56;94.33
85097;SHT30;75436;53.502;10.030;2024-02-15T02:19:49;11.56;94.53
85097;SHT30;75436;53.502;10.030;2024-02-15T02:22:18;11.64;94.49
85097;SHT30;75436;53.502;10.030;2024-02-15T02:27:29;11.61;94.33
85097;SHT30;75436;53.502;10.030;2024-02-15T02:29:57;11.61;94.26
85097;SHT30;75436;53.502;10.030;2024-02-15T02:32:25;11.58;94.44
85097;SHT30;75436;53.502;10.030;2024-02-15T02:34:51;11.61;94.50
85097;SHT30;75436;53.502;10.030;2024-02-15T02:37:18;11.60;94.54
85097;SHT30;75436;53.502;10.030;2024-02-15T02:39:45;11.64;94.52
85097;SHT30;75436;53.502;10.030;2024-02-15T02:42:10;11.58;94.80
85097;SHT30;75436;53.502;10.030;2024-02-15T02:44:36;11.56;94.85
85097;SHT30;75436;53.502;10.030;2024-02-15T02:47:01;11.53;94.83
85097;SHT30;75436;53.502;10.030;2024-02-15T02:49:26;11.58;94.84
85097;SHT30;75436;53.502;10.030;2024-02-15T02:51:54;11.50;94.99
85097;SHT30;75436;53.502;10.030;2024-02-15T02:54:19;11.58;94.96
85097;SHT30;75436;53.502;10.030;2024-02-15T02:56:45;11.60;94.97
85097;SHT30;75436;53.502;10.030;2024-02-15T02:59:11;11.57;94.96
85097;SHT30;75436;53.502;10.030;2024-02-15T03:01:36;11.54;94.94
85097;SHT30;75436;53.502;10.030;2024-02-15T03:04:02;11.54;95.03
85097;SHT30;75436;53.502;10.030;2024-02-15T03:06:27;11.58;95.04
85097;SHT30;75436;53.502;10.030;2024-02-15T03:08:54;11.60;95.00
85097;SHT30;75436;53.502;10.030;2024-02-15T03:11:20;11.58;94.82
85097;SHT30;75436;53.502;10.030;2024-02-15T03:13:47;11.66;94.77
85097;SHT30;75436;53.502;10.030;2024-02-15T03:16:15;11.66;94.70
85097;SHT30;75436;53.502;10.030;2024-02-15T03:18:42;11.67;94.74
85097;SHT30;75436;53.502;10.030;2024-02-15T03:21:09;11.68;94.59
85097;SHT30;75436;53.502;10.030;2024-02-15T03:23:38;11.64;94.65
85097;SHT30;75436;53.502;10.030;2024-02-15T03:26:04;11.66;94.92
85097;SHT30;75436;53.502;10.030;2024-02-15T03:28:30;11.61;94.88
85097;SHT30;75436;53.502;10.030;2024-02-15T03:30:56;11.60;95.06
85097;SHT30;75436;53.502;10.030;2024-02-15T03:33:22;11.60;95.17
85097;SHT30;75436;53.502;10.030;2024-02-15T03:35:52;11.54;95.00
85097;SHT30;75436;53.502;10.030;2024-02-15T03:38:19;11.63;95.17
85097;SHT30;75436;53.502;10.030;2024-02-15T03:40:44;11.61;95.08
85097;SHT30;75436;53.502;10.030;2024-02-15T03:43:10;11.63;95.01
85097;SHT30;75436;53.502;10.030;2024-02-15T03:45:35;11.63;95.08
85097;SHT30;75436;53.502;10.030;2024-02-15T03:48:01;11.61;95.14
85097;SHT30;75436;53.502;10.030;2024-02-15T03:50:29;11.61;95.26
85097;SHT30;75436;53.502;10.030;2024-02-15T03:52:58;11.57;95.21
85097;SHT30;75436;53.502;10.030;2024-02-15T03:55:25;11.71;94.97
85097;SHT30;75436;53.502;10.030;2024-02-15T03:57:50;11.64;94.97
85097;SHT30;75436;53.502;10.030;2024-02-15T04:00:17;11.64;95.03
85097;SHT30;75436;53.502;10.030;2024-02-15T04:02:47;11.61;95.14
85097;SHT30;75436;53.502;10.030;2024-02-15T04:05:16;11.61;95.18
85097;SHT30;75436;53.502;10.030;2024-02-15T04:07:44;11.60;95.00
85097;SHT30;75436;53.502;10.030;2024-02-15T04:10:11;11.57;95.16
85097;SHT30;75436;53.502;10.030;2024-02-15T04:12:36;11.60;95.18
85097;SHT30;75436;53.502;10.030;2024-02-15T04:15:03;11.63;95.19
85097;SHT30;75436;53.502;10.030;2024-02-15T04:17:38;11.58;95.07
85097;SHT30;75436;53.502;10.030;2024-02-15T04:20:04;11.64;95.11
85097;SHT30;75436;53.502;10.030;2024-02-15T04:22:33;11.60;95.10
85097;SHT30;75436;53.502;10.030;2024-02-15T04:25:06;11.67;94.86
85097;SHT30;75436;53.502;10.030;2024-02-15T04:27:33;11.67;94.93
85097;SHT30;75436;53.502;10.030;2024-02-15T04:30:05;11.73;94.66
85097;SHT30;75436;53.502;10.030;2024-02-15T04:32:32;11.68;94.65
85097;SHT30;75436;53.502;10.030;2024-02-15T04:35:00;11.60;94.72
85097;SHT30;75436;53.502;10.030;2024-02-15T04:37:26;11.66;94.72
85097;SHT30;75436;53.502;10.030;2024-02-15T04:39:55;11.64;94.80
85097;SHT30;75436;53.502;10.030;2024-02-15T04:42:25;11.75;94.48
85097;SHT30;75436;53.502;10.030;2024-02-15T04:44:51;11.73;94.48
85097;SHT30;75436;53.502;10.030;2024-02-15T04:47:19;11.67;94.60
85097;SHT30;75436;53.502;10.030;2024-02-15T04:49:45;11.70;94.70
85097;SHT30;75436;53.502;10.030;2024-02-15T04:52:11;11.63;94.64
85097;SHT30;75436;53.502;10.030;2024-02-15T04:54:38;11.63;94.89
85097;SHT30;75436;53.502;10.030;2024-02-15T04:57:04;11.61;94.94
85097;SHT30;75436;53.502;10.030;2024-02-15T04:59:31;11.57;95.08
85097;SHT30;75436;53.502;10.030;2024-02-15T05:01:58;11.61;95.14
85097;SHT30;75436;53.502;10.030;2024-02-15T05:04:23;11.61;95.13
85097;SHT30;75436;53.502;10.030;2024-02-15T05:06:50;11.64;95.01
85097;SHT30;75436;53.502;10.030;2024-02-15T05:09:16;11.70;94.97
85097;SHT30;75436;53.502;10.030;2024-02-15T05:11:44;11.68;95.03
85097;SHT30;75436;53.502;10.030;2024-02-15T05:14:14;11.68;94.94
85097;SHT30;75436;53.502;10.030;2024-02-15T05:16:45;11.71;94.87
85097;SHT30;75436;53.502;10.030;2024-02-15T05:19:17;11.78;94.72
85097;SHT30;75436;53.502;10.030;2024-02-15T05:21:45;11.71;94.66
85097;SHT30;75436;53.502;10.030;2024-02-15T05:24:15;11.68;94.72
85097;SHT30;75436;53.502;10.030;2024-02-15T05:26:44;11.66;94.81
85097;SHT30;75436;53.502;10.030;2024-02-15T05:29:15;11.64;94.86
85097;SHT30;75436;53.502;10.030;2024-02-15T05:31:41;11.60;95.01
85097;SHT30;75436;53.502;10.030;2024-02-15T05:34:07;11.64;95.00
85097;SHT30;75436;53.502;10.030;2024-02-15T05:36:34;11.66;94.95
85097;SHT30;75436;53.502;10.030;2024-02-15T05:39:00;11.67;94.94
85097;SHT30;75436;53.502;10.030;2024-02-15T05:41:25;11.67;94.83
85097;SHT30;75436;53.502;10.030;2024-02-15T05:43:52;11.67;94.82
85097;SHT30;75436;53.502;10.030;2024-02-15T05:46:19;11.67;94.76
85097;SHT30;75436;53.502;10.030;2024-02-15T05:48:46;11.60;94.88
85097;SHT30;75436;53.502;10.030;2024-02-15T05:51:12;11.61;95.08
85097;SHT30;75436;53.502;10.030;2024-02-15T05:53:38;11.68;95.05
85097;SHT30;75436;53.502;10.030;2024-02-15T05:56:05;11.66;95.00
85097;SHT30;75436;53.502;10.030;2024-02-15T05:58:36;11.67;95.04
85097;SHT30;75436;53.502;10.030;2024-02-15T06:01:04;11.64;94.88
85097;SHT30;75436;53.502;10.030;2024-02-15T06:03:35;11.68;95.10
85097;SHT30;75436;53.502;10.030;2024-02-15T06:06:04;11.63;94.97
85097;SHT30;75436;53.502;10.030;2024-02-15T06:08:35;11.57;95.19
85097;SHT30;75436;53.502;10.030;2024-02-15T06:11:01;11.57;95.24
85097;SHT30;75436;53.502;10.030;2024-02-15T06:13:27;11.61;95.19
85097;SHT30;75436;53.502;10.030;2024-02-15T06:15:53;11.61;95.15
85097;SHT30;75436;53.502;10.030;2024-02-15T06:18:25;11.60;95.11
85097;SHT30;75436;53.502;10.030;2024-02-15T06:20:53;11.57;95.19
85097;SHT30;75436;53.502;10.030;2024-02-15T06:23:20;11.61;95.14
85097;SHT30;75436;53.502;10.030;2024-02-15T06:25:52;11.58;95.10
85097;SHT30;75436;53.502;10.030;2024-02-15T06:28:22;11.60;95.10
85097;SHT30;75436;53.502;10.030;2024-02-15T06:31:10;11.53;95.15
85097;SHT30;75436;53.502;10.030;2024-02-15T06:33:56;11.60;94.96
85097;SHT30;75436;53.502;10.030;2024-02-15T06:36:48;11.66;94.95
85097;SHT30;75436;53.502;10.030;2024-02-15T06:39:34;11.67;94.86
85097;SHT30;75436;53.502;10.030;2024-02-15T06:42:13;11.68;94.71
85097;SHT30;75436;53.502;10.030;2024-02-15T06:44:44;11.64;94.75
85097;SHT30;75436;53.502;10.030;2024-02-15T06:47:10;11.61;94.82
85097;SHT30;75436;53.502;10.030;2024-02-15T06:49:38;11.75;94.56
85097;SHT30;75436;53.502;10.030;2024-02-15T06:52:10;11.67;94.43
85097;SHT30;75436;53.502;10.030;2024-02-15T06:54:39;11.68;94.49
85097;SHT30;75436;53.502;10.030;2024-02-15T06:57:05;11.66;94.47
85097;SHT30;75436;53.502;10.030;2024-02-15T06:59:32;11.68;94.49
85097;SHT30;75436;53.502;10.030;2024-02-15T07:01:59;11.79;94.15
85097;SHT30;75436;53.502;10.030;2024-02-15T07:04:25;11.77;93.94
85097;SHT30;75436;53.502;10.030;2024-02-15T07:06:52;11.82;93.73
85097;SHT30;75436;53.502;10.030;2024-02-15T07:09:22;11.84;93.82
85097;SHT30;75436;53.502;10.030;2024-02-15T07:11:50;11.81;93.63
85097;SHT30;75436;53.502;10.030;2024-02-15T07:14:16;11.78;93.85
85097;SHT30;75436;53.502;10.030;2024-02-15T07:16:49;11.78;93.84
85097;SHT30;75436;53.502;10.030;2024-02-15T07:19:16;11.79;93.73
85097;SHT30;75436;53.502;10.030;2024-02-15T07:21:43;11.77;93.80
85097;SHT30;75436;53.502;10.030;2024-02-15T07:24:09;11.82;93.68
85097;SHT30;75436;53.502;10.030;2024-02-15T07:26:38;11.82;93.50
85097;SHT30;75436;53.502;10.030;2024-02-15T07:29:04;11.87;93.38
85097;SHT30;75436;53.502;10.030;2024-02-15T07:31:33;11.89;93.26
85097;SHT30;75436;53.502;10.030;2024-02-15T07:34:00;11.87;93.41
85097;SHT30;75436;53.502;10.030;2024-02-15T07:36:26;11.97;93.24
85097;SHT30;75436;53.502;10.030;2024-02-15T07:38:54;11.89;93.22
85097;SHT30;75436;53.502;10.030;2024-02-15T07:41:23;11.92;93.19
85097;SHT30;75436;53.502;10.030;2024-02-15T07:43:51;11.97;92.92
85097;SHT30;75436;53.502;10.030;2024-02-15T07:46:22;11.91;93.17
85097;SHT30;75436;53.502;10.030;2024-02-15T07:48:49;11.94;93.32
85097;SHT30;75436;53.502;10.030;2024-02-15T07:51:17;11.95;93.18
85097;SHT30;75436;53.502;10.030;2024-02-15T07:53:46;11.97;93.05
85097;SHT30;75436;53.502;10.030;2024-02-15T07:56:13;11.92;93.16
85097;SHT30;75436;53.502;10.030;2024-02-15T07:58:44;11.94;93.14
85097;SHT30;75436;53.502;10.030;2024-02-15T08:01:14;11.91;93.32
85097;SHT30;75436;53.502;10.030;2024-02-15T08:03:40;11.94;93.27
85097;SHT30;75436;53.502;10.030;2024-02-15T08:06:11;11.95;93.33
85097;SHT30;75436;53.502;10.030;2024-02-15T08:08:39;11.94;93.40
85097;SHT30;75436;53.502;10.030;2024-02-15T08:11:09;11.88;93.49
85097;SHT30;75436;53.502;10.030;2024-02-15T08:13:45;11.87;93.73
85097;SHT30;75436;53.502;10.030;2024-02-15T08:16:11;11.91;93.74
85097;SHT30;75436;53.502;10.030;2024-02-15T08:18:38;11.88;93.83
85097;SHT30;75436;53.502;10.030;2024-02-15T08:21:05;11.91;93.88
85097;SHT30;75436;53.502;10.030;2024-02-15T08:23:31;11.98;93.72
85097;SHT30;75436;53.502;10.030;2024-02-15T08:25:57;11.97;93.69
85097;SHT30;75436;53.502;10.030;2024-02-15T08:28:24;11.89;93.82
85097;SHT30;75436;53.502;10.030;2024-02-15T08:30:54;11.91;93.85
85097;SHT30;75436;53.502;10.030;2024-02-15T08:33:19;11.98;93.88
85097;SHT30;75436;53.502;10.030;2024-02-15T08:35:46;11.98;93.92
85097;SHT30;75436;53.502;10.030;2024-02-15T08:38:12;11.99;93.93
85097;SHT30;75436;53.502;10.030;2024-02-15T08:40:39;12.02;93.89
85097;SHT30;75436;53.502;10.030;2024-02-15T08:43:04;12.04;93.93
85097;SHT30;75436;53.502;10.030;2024-02-15T08:45:29;12.16;94.04
85097;SHT30;75436;53.502;10.030;2024-02-15T08:47:55;12.22;93.75
85097;SHT30;75436;53.502;10.030;2024-02-15T08:50:20;12.24;93.69
85097;SHT30;75436;53.502;10.030;2024-02-15T08:52:48;12.25;93.64
85097;SHT30;75436;53.502;10.030;2024-02-15T08:55:15;12.22;93.53
85097;SHT30;75436;53.502;10.030;2024-02-15T08:57:42;12.24;93.66
85097;SHT30;75436;53.502;10.030;2024-02-15T09:00:10;12.25;93.75
85097;SHT30;75436;53.502;10.030;2024-02-15T09:02:45;12.22;93.66
85097;SHT30;75436;53.502;10.030;2024-02-15T09:05:11;12.25;93.58
85097;SHT30;75436;53.502;10.030;2024-02-15T09:07:47;12.28;93.67
85097;SHT30;75436;53.502;10.030;2024-02-15T09:10:14;12.28;93.55
85097;SHT30;75436;53.502;10.030;2024-02-15T09:12:43;12.29;93.62
85097;SHT30;75436;53.502;10.030;2024-02-15T09:15:12;12.35;93.68
85097;SHT30;75436;53.502;10.030;2024-02-15T09:17:38;12.36;93.46
85097;SHT30;75436;53.502;10.030;2024-02-15T09:20:17;12.37;93.38
85097;SHT30;75436;53.502;10.030;2024-02-15T09:22:52;12.43;93.24
85097;SHT30;75436;53.502;10.030;2024-02-15T09:25:21;12.49;93.14
85097;SHT30;75436;53.502;10.030;2024-02-15T09:27:50;12.50;93.13
85097;SHT30;75436;53.502;10.030;2024-02-15T09:30:17;12.45;93.22
85097;SHT30;75436;53.502;10.030;2024-02-15T09:32:44;12.50;93.09
85097;SHT30;75436;53.502;10.030;2024-02-15T09:35:12;12.52;93.06
85097;SHT30;75436;53.502;10.030;2024-02-15T09:37:44;12.53;93.22
85097;SHT30;75436;53.502;10.030;2024-02-15T09:40:12;12.49;93.15
85097;SHT30;75436;53.502;10.030;2024-02-15T09:42:39;12.47;93.15
85097;SHT30;75436;53.502;10.030;2024-02-15T09:45:08;12.47;93.37
85097;SHT30;75436;53.502;10.030;2024-02-15T09:47:42;12.50;93.16
85097;SHT30;75436;53.502;10.030;2024-02-15T09:50:10;12.52;93.37
85097;SHT30;75436;53.502;10.030;2024-02-15T09:52:52;12.50;93.55
85097;SHT30;75436;53.502;10.030;2024-02-15T09:55:20;12.53;93.37
85097;SHT30;75436;53.502;10.030;2024-02-15T09:57:49;12.55;93.47
85097;SHT30;75436;53.502;10.030;2024-02-15T10:00:17;12.49;93.50
85097;SHT30;75436;53.502;10.030;2024-02-15T10:02:46;12.52;93.37
85097;SHT30;75436;53.502;10.030;2024-02-15T10:05:14;12.49;93.40
85097;SHT30;75436;53.502;10.030;2024-02-15T10:07:41;12.49;93.52
85097;SHT30;75436;53.502;10.030;2024-02-15T10:10:25;12.53;93.26
85097;SHT30;75436;53.502;10.030;2024-02-15T10:12:53;12.59;93.13
85097;SHT30;75436;53.502;10.030;2024-02-15T10:15:37;12.56;92.98
85097;SHT30;75436;53.502;10.030;2024-02-15T10:18:10;12.60;92.96
85097;SHT30;75436;53.502;10.030;2024-02-15T10:20:39;12.60;92.88
85097;SHT30;75436;53.502;10.030;2024-02-15T10:23:14;12.64;92.81
85097;SHT30;75436;53.502;10.030;2024-02-15T10:25:43;12.72;93.08
85097;SHT30;75436;53.502;10.030;2024-02-15T10:28:12;12.72;92.69
85097;SHT30;75436;53.502;10.030;2024-02-15T10:30:42;12.68;92.96
85097;SHT30;75436;53.502;10.030;2024-02-15T10:33:09;12.73;92.90
85097;SHT30;75436;53.502;10.030;2024-02-15T10:35:35;12.79;92.56
85097;SHT30;75436;53.502;10.030;2024-02-15T10:38:25;12.84;92.48
85097;SHT30;75436;53.502;10.030;2024-02-15T10:41:03;12.90;92.67
85097;SHT30;75436;53.502;10.030;2024-02-15T10:43:36;12.95;92.43
85097;SHT30;75436;53.502;10.030;2024-02-15T10:46:05;12.88;92.47
85097;SHT30;75436;53.502;10.030;2024-02-15T10:48:36;12.91;92.48
85097;SHT30;75436;53.502;10.030;2024-02-15T10:51:09;12.94;92.66
85097;SHT30;75436;53.502;10.030;2024-02-15T10:53:39;13.00;92.40
85097;SHT30;75436;53.502;10.030;2024-02-15T10:56:18;12.97;92.45
85097;SHT30;75436;53.502;10.030;2024-02-15T10:58:50;12.91;92.53
85097;SHT30;75436;53.502;10.030;2024-02-15T11:01:18;12.90;92.67
85097;SHT30;75436;53.502;10.030;2024-02-15T11:03:51;12.94;92.31
85097;SHT30;75436;53.502;10.030;2024-02-15T11:06:21;12.93;92.35
85097;SHT30;75436;53.502;10.030;2024-02-15T11:08:49;12.94;92.73
85097;SHT30;75436;53.502;10.030;2024-02-15T11:11:15;12.93;92.86
85097;SHT30;75436;53.502;10.030;2024-02-15T11:13:41;12.91;92.82
85097;SHT30;75436;53.502;10.030;2024-02-15T11:16:08;12.87;92.97
85097;SHT30;75436;53.502;10.030;2024-02-15T11:18:45;12.93;92.96
85097;SHT30;75436;53.502;10.030;2024-02-15T11:21:15;12.81;93.05
85097;SHT30;75436;53.502;10.030;2024-02-15T11:23:44;12.86;92.92
85097;SHT30;75436;53.502;10.030;2024-02-15T11:26:45;12.88;93.13
85097;SHT30;75436;53.502;10.030;2024-02-15T11:29:54;12.83;93.14
85097;SHT30;75436;53.502;10.030;2024-02-15T11:32:41;12.73;93.38
85097;SHT30;75436;53.502;10.030;2024-02-15T11:35:14;12.66;93.43
85097;SHT30;75436;53.502;10.030;2024-02-15T11:43:06;12.56;93.94
85097;SHT30;75436;53.502;10.030;2024-02-15T11:45:33;12.46;94.05
85097;SHT30;75436;53.502;10.030;2024-02-15T11:48:03;12.49;94.09
85097;SHT30;75436;53.502;10.030;2024-02-15T11:50:34;12.46;94.21
85097;SHT30;75436;53.502;10.030;2024-02-15T11:53:12;12.49;94.25
85097;SHT30;75436;53.502;10.030;2024-02-15T11:55:40;12.50;94.18
85097;SHT30;75436;53.502;10.030;2024-02-15T11:58:09;12.47;94.30
85097;SHT30;75436;53.502;10.030;2024-02-15T12:00:35;12.47;94.33
85097;SHT30;75436;53.502;10.030;2024-02-15T12:03:21;12.42;94.56
85097;SHT30;75436;53.502;10.030;2024-02-15T12:06:05;12.39;94.76
85097;SHT30;75436;53.502;10.030;2024-02-15T12:08:54;12.45;94.73
85097;SHT30;75436;53.502;10.030;2024-02-15T12:11:39;12.42;94.79
85097;SHT30;75436;53.502;10.030;2024-02-15T12:14:25;12.35;94.89
85097;SHT30;75436;53.502;10.030;2024-02-15T12:17:12;12.35;95.02
85097;SHT30;75436;53.502;10.030;2024-02-15T12:20:01;12.37;95.18
85097;SHT30;75436;53.502;10.030;2024-02-15T12:22:39;12.39;95.01
85097;SHT30;75436;53.502;10.030;2024-02-15T12:25:07;12.37;95.04
85097;SHT30;75436;53.502;10.030;2024-02-15T12:27:43;12.39;95.15
85097;SHT30;75436;53.502;10.030;2024-02-15T12:30:14;12.46;94.93
85097;SHT30;75436;53.502;10.030;2024-02-15T12:32:40;12.42;94.98
85097;SHT30;75436;53.502;10.030;2024-02-15T12:35:16;12.37;95.15
85097;SHT30;75436;53.502;10.030;2024-02-15T12:37:48;12.36;95.23
85097;SHT30;75436;53.502;10.030;2024-02-15T12:40:19;12.35;95.18
85097;SHT30;75436;53.502;10.030;2024-02-15T12:42:46;12.33;95.27
85097;SHT30;75436;53.502;10.030;2024-02-15T12:45:17;12.40;95.23
85097;SHT30;75436;53.502;10.030;2024-02-15T12:47:49;12.43;95.29
85097;SHT30;75436;53.502;10.030;2024-02-15T12:50:23;12.43;95.08
85097;SHT30;75436;53.502;10.030;2024-02-15T12:52:50;12.40;94.99
85097;SHT30;75436;53.502;10.030;2024-02-15T12:55:24;12.43;95.07
85097;SHT30;75436;53.502;10.030;2024-02-15T12:57:54;12.43;95.09
85097;SHT30;75436;53.502;10.030;2024-02-15T13:00:23;12.47;95.11
85097;SHT30;75436;53.502;10.030;2024-02-15T13:02:55;12.52;95.14
85097;SHT30;75436;53.502;10.030;2024-02-15T13:05:25;12.53;95.15
85097;SHT30;75436;53.502;10.030;2024-02-15T13:07:53;12.50;95.12
85097;SHT30;75436;53.502;10.030;2024-02-15T13:10:29;12.42;95.10
85097;SHT30;75436;53.502;10.030;2024-02-15T13:12:56;12.37;95.06
85097;SHT30;75436;53.502;10.030;2024-02-15T13:15:23;12.42;95.13
85097;SHT30;75436;53.502;10.030;2024-02-15T13:17:53;12.47;95.05
85097;SHT30;75436;53.502;10.030;2024-02-15T13:20:21;12.47;95.02
85097;SHT30;75436;53.502;10.030;2024-02-15T13:23:02;12.46;95.03
85097;SHT30;75436;53.502;10.030;2024-02-15T13:25:37;12.42;94.92
85097;SHT30;75436;53.502;10.030;2024-02-15T13:28:05;12.37;94.77
85097;SHT30;75436;53.502;10.030;2024-02-15T13:30:34;12.42;94.99
85097;SHT30;75436;53.502;10.030;2024-02-15T13:33:02;12.42;94.98
85097;SHT30;75436;53.502;10.030;2024-02-15T13:35:30;12.52;95.02
85097;SHT30;75436;53.502;10.030;2024-02-15T13:37:56;12.53;94.80
85097;SHT30;75436;53.502;10.030;2024-02-15T13:40:26;12.45;94.77
85097;SHT30;75436;53.502;10.030;2024-02-15T13:42:58;12.49;94.59
85097;SHT30;75436;53.502;10.030;2024-02-15T13:45:31;12.40;94.76
85097;SHT30;75436;53.502;10.030;2024-02-15T13:48:03;12.47;94.76
85097;SHT30;75436;53.502;10.030;2024-02-15T13:50:36;12.47;94.60
85097;SHT30;75436;53.502;10.030;2024-02-15T13:53:03;12.45;94.52
85097;SHT30;75436;53.502;10.030;2024-02-15T13:55:29;12.56;94.38
85097;SHT30;75436;53.502;10.030;2024-02-15T13:57:55;12.57;94.54
85097;SHT30;75436;53.502;10.030;2024-02-15T14:00:26;12.53;94.45
85097;SHT30;75436;53.502;10.030;2024-02-15T14:03:03;12.57;94.32
85097;SHT30;75436;53.502;10.030;2024-02-15T14:05:33;12.53;94.48
85097;SHT30;75436;53.502;10.030;2024-02-15T14:08:01;12.55;94.58
85097;SHT30;75436;53.502;10.030;2024-02-15T14:10:31;12.57;94.35
85097;SHT30;75436;53.502;10.030;2024-02-15T14:12:57;12.56;94.00
85097;SHT30;75436;53.502;10.030;2024-02-15T14:15:29;12.53;94.21
85097;SHT30;75436;53.502;10.030;2024-02-15T14:17:55;12.52;94.24
85097;SHT30;75436;53.502;10.030;2024-02-15T14:20:28;12.59;93.92
85097;SHT30;75436;53.502;10.030;2024-02-15T14:22:53;12.55;93.93
85097;SHT30;75436;53.502;10.030;2024-02-15T14:25:21;12.60;94.11
85097;SHT30;75436;53.502;10.030;2024-02-15T14:27:47;12.56;93.88
85097;SHT30;75436;53.502;10.030;2024-02-15T14:30:17;12.52;93.76
85097;SHT30;75436;53.502;10.030;2024-02-15T14:33:01;12.52;93.99
85097;SHT30;75436;53.502;10.030;2024-02-15T14:35:34;12.45;94.25
85097;SHT30;75436;53.502;10.030;2024-02-15T14:38:04;12.46;94.27
85097;SHT30;75436;53.502;10.030;2024-02-15T14:40:38;12.42;94.32
85097;SHT30;75436;53.502;10.030;2024-02-15T14:43:05;12.45;94.28
85097;SHT30;75436;53.502;10.030;2024-02-15T14:45:33;12.42;94.27
85097;SHT30;75436;53.502;10.030;2024-02-15T14:48:00;12.39;94.32
85097;SHT30;75436;53.502;10.030;2024-02-15T14:50:26;12.40;94.33
85097;SHT30;75436;53.502;10.030;2024-02-15T14:52:53;12.46;94.36
85097;SHT30;75436;53.502;10.030;2024-02-15T14:55:22;12.39;94.27
85097;SHT30;75436;53.502;10.030;2024-02-15T14:57:48;12.36;94.40
85097;SHT30;75436;53.502;10.030;2024-02-15T15:00:14;12.40;94.42
85097;SHT30;75436;53.502;10.030;2024-02-15T15:02:47;12.35;94.44
85097;SHT30;75436;53.502;10.030;2024-02-15T15:05:13;12.42;94.56
85097;SHT30;75436;53.502;10.030;2024-02-15T15:07:59;12.40;94.21
85097;SHT30;75436;53.502;10.030;2024-02-15T15:10:47;12.37;94.32
85097;SHT30;75436;53.502;10.030;2024-02-15T15:13:33;12.33;94.38
85097;SHT30;75436;53.502;10.030;2024-02-15T15:16:00;12.32;94.35
85097;SHT30;75436;53.502;10.030;2024-02-15T15:18:29;12.37;94.17
85097;SHT30;75436;53.502;10.030;2024-02-15T15:20:57;12.42;94.13
85097;SHT30;75436;53.502;10.030;2024-02-15T15:23:23;12.43;93.99
85097;SHT30;75436;53.502;10.030;2024-02-15T15:25:49;12.45;94.03
85097;SHT30;75436;53.502;10.030;2024-02-15T15:28:14;12.37;94.09
85097;SHT30;75436;53.502;10.030;2024-02-15T15:30:40;12.35;94.08
85097;SHT30;75436;53.502;10.030;2024-02-15T15:33:05;12.42;93.99
85097;SHT30;75436;53.502;10.030;2024-02-15T15:35:36;12.36;94.13